Amberley, Queensland

1:45 PM AEST on October 23, 2014 (GMT +1000)
Amberley Military | Change Station
CLOSE
Current Station
Airport
Location: Amberley Military,
Elevation: 79 ft
Nearby Weather Stations

Elev 79 ft 27.63 °S, 152.71 °E | Updated 15 minutes ago

Clear
Clear
84 °F
Feels Like 84 °F
N
8
Wind Variable Wind from NNW

Today
High -- | Low -- °F
--% Chance of Precip.
Yesterday
High -- | Low -- °F
Precip. -- in
5:05 AM 6:01 PM
Waning Crescent, 1% visible
Pressure 30.04 in
Visibility -9999.0 miles
Clouds
Dew Point 50 °F
Humidity 30%
Rainfall 0.00 in
Snow Depth Not available.
UV Not available.
Pollen Not available.
Air Quality Not available.
Flu Activity Not available.
METAR YAMB 230330Z 34007KT CAVOK 29/10 Q1017

More Conditions Fewer Conditions

Pressure 30.04 in
Visibility -9999.0 miles
Clouds
Dew Point 50 °F
Humidity 30%
Rainfall 0.00 in
Snow Depth Not available.
UV Not available.
Pollen Not available.
Air Quality Not available.
Flu Activity Not available.
METAR YAMB 230330Z 34007KT CAVOK 29/10 Q1017

More Conditions Fewer Conditions

10-Day Weather Forecast

Almanac

Astronomy

Oct. 23, 2014 Rise Set
Actual Time 5:05 AM AEST 6:01 PM AEST
Civil Twilight 4:41 AM AEST 6:25 PM AEST
Nautical Twilight 4:13 AM AEST 6:54 PM AEST
Astronomical Twilight 3:44 AM AEST 7:23 PM AEST
Moon 4:30 AM AEST 5:24 PM AEST
Length of Visible Light 13h 43m
Length of Day
12h 55m
Tomorrow will be 1m 33s longer.
Waning Crescent, 1% of the Moon is Illuminated
Oct 22
Waning Crescent
Oct 23
New
Oct 30
First Quarter
Nov 6
Full
Nov 14
Last Quarter

Yesterday's Extremes

Country Highs Country Lows

Community

WunderPhotos

Upload Photos

1,764,130 photos uploaded!

Nearby

Snow Depth

Not available.

Earthquake Activity

City Distance Mag. Time & Date
No recent earthquake activity has been reported nearby.
Minimum magnitude displayed is 2.5.

Coastal Water Temperatures

Place Temperature
No Stations Reporting

Nearby Weather Stations